Time;durP1;ratioP1;P1;durP2;ratioP2;P2;SDS_P1;SDS_P2;PMS_P1;PMS_P2;Temp;Humidity;BMP_temperature;BMP_pressure;BME280_temperature;BME280_humidity;BME280_pressure;Samples;Min_cycle;Max_cycle;Signal;HPM_P1;HPM_P2
2024/01/12 00:00:36;;;;;;;19.77;14.77;;;3.30;99.90;;;;;;5022991;28;20225;-74
2024/01/12 00:03:02;;;;;;;23.40;15.30;;;3.40;99.90;;;;;;5027178;28;20576;-74
2024/01/12 00:05:28;;;;;;;19.00;13.68;;;3.30;99.90;;;;;;5025364;28;20612;-74
2024/01/12 00:07:54;;;;;;;19.37;14.17;;;3.30;99.90;;;;;;5035868;28;20217;-74
2024/01/12 00:10:20;;;;;;;22.47;13.73;;;3.30;99.90;;;;;;5037486;28;20284;-74
2024/01/12 00:12:45;;;;;;;21.07;14.47;;;3.30;99.90;;;;;;5037188;28;20193;-74
2024/01/12 00:15:11;;;;;;;18.47;13.33;;;3.30;99.90;;;;;;5030478;28;20659;-74
2024/01/12 00:17:37;;;;;;;22.80;14.13;;;3.30;99.90;;;;;;5028929;28;20174;-74
2024/01/12 00:20:06;;;;;;;21.40;14.87;;;3.30;99.90;;;;;;5021606;28;20179;-74
2024/01/12 00:22:32;;;;;;;23.02;14.15;;;3.30;99.90;;;;;;5032630;28;20499;-75
2024/01/12 00:24:58;;;;;;;18.17;14.60;;;3.30;99.90;;;;;;5032791;28;20182;-75
2024/01/12 00:27:23;;;;;;;16.90;12.20;;;3.30;99.90;;;;;;5031893;28;20186;-74
2024/01/12 00:29:49;;;;;;;19.53;13.60;;;3.30;99.90;;;;;;5012424;28;20202;-75
2024/01/12 00:32:14;;;;;;;21.30;13.63;;;3.30;99.90;;;;;;5020705;28;20213;-74
2024/01/12 00:34:40;;;;;;;22.20;15.10;;;3.30;99.90;;;;;;5028751;28;20180;-74
2024/01/12 00:37:06;;;;;;;20.23;15.07;;;3.30;99.90;;;;;;5020364;28;20675;-74
2024/01/12 00:39:32;;;;;;;22.77;14.50;;;3.20;99.90;;;;;;5028656;28;20220;-75
2024/01/12 00:41:58;;;;;;;20.02;13.43;;;3.20;99.90;;;;;;5030097;28;20184;-74
2024/01/12 00:44:25;;;;;;;24.87;15.00;;;3.30;99.90;;;;;;5022787;28;20268;-74
2024/01/12 00:46:51;;;;;;;19.00;15.30;;;3.20;99.90;;;;;;5030137;28;20181;-74
2024/01/12 00:49:18;;;;;;;25.80;14.95;;;3.30;99.90;;;;;;5029552;28;20228;-74
2024/01/12 00:51:44;;;;;;;22.90;14.70;;;3.20;99.90;;;;;;5029806;28;20169;-74
2024/01/12 00:54:10;;;;;;;23.65;15.13;;;3.20;99.90;;;;;;5012367;28;20190;-74
2024/01/12 00:56:35;;;;;;;23.00;15.50;;;3.20;99.90;;;;;;5036075;28;20255;-73
2024/01/12 00:59:01;;;;;;;21.63;14.00;;;3.20;99.90;;;;;;5033101;28;21093;-73
2024/01/12 01:01:27;;;;;;;21.87;15.70;;;3.20;99.90;;;;;;5032432;28;20182;-74
2024/01/12 01:03:52;;;;;;;24.90;16.10;;;3.20;99.90;;;;;;5036265;28;20595;-74
2024/01/12 01:06:18;;;;;;;26.03;15.10;;;3.20;99.90;;;;;;5023952;28;20528;-74
2024/01/12 01:08:45;;;;;;;20.80;14.80;;;3.30;99.90;;;;;;5033046;28;20190;-74
2024/01/12 01:11:11;;;;;;;19.85;14.65;;;3.20;99.90;;;;;;5017424;28;20520;-74
2024/01/12 01:13:38;;;;;;;21.13;14.83;;;3.20;99.90;;;;;;5025807;28;20208;-74
2024/01/12 01:16:04;;;;;;;29.13;15.63;;;3.30;99.90;;;;;;5010785;28;20603;-74
2024/01/12 01:18:30;;;;;;;17.30;13.57;;;3.30;99.90;;;;;;5021109;28;20668;-74
2024/01/12 01:20:57;;;;;;;29.60;15.53;;;3.20;99.90;;;;;;5026089;28;20184;-74
2024/01/12 01:23:23;;;;;;;26.67;15.25;;;3.30;99.90;;;;;;4991446;28;20197;-74
2024/01/12 01:25:49;;;;;;;23.60;14.63;;;3.30;99.90;;;;;;5032851;28;20178;-73
2024/01/12 01:28:15;;;;;;;23.38;15.88;;;3.30;99.90;;;;;;5010822;28;20704;-73
2024/01/12 01:30:41;;;;;;;22.30;13.97;;;3.30;99.90;;;;;;5025837;28;20265;-73
2024/01/12 01:33:06;;;;;;;22.97;14.30;;;3.30;99.90;;;;;;5039288;28;20209;-73
2024/01/12 01:35:32;;;;;;;18.73;13.03;;;3.30;99.90;;;;;;5019771;28;20667;-75
2024/01/12 01:37:58;;;;;;;22.33;13.47;;;3.30;99.90;;;;;;5004265;28;20266;-74
2024/01/12 01:40:24;;;;;;;18.53;13.70;;;3.30;99.90;;;;;;5037223;28;20589;-74
2024/01/12 01:42:49;;;;;;;22.13;15.87;;;3.30;99.90;;;;;;5015776;28;20212;-74
2024/01/12 01:45:16;;;;;;;19.60;14.70;;;3.30;99.90;;;;;;5007790;28;20647;-75
2024/01/12 01:47:42;;;;;;;18.88;14.00;;;3.30;99.90;;;;;;5017350;28;20221;-75
2024/01/12 01:50:10;;;;;;;20.50;14.73;;;3.30;99.90;;;;;;4990507;28;20200;-74
2024/01/12 01:52:37;;;;;;;19.83;14.07;;;3.30;99.90;;;;;;5025079;28;20212;-74
2024/01/12 01:55:04;;;;;;;20.25;13.25;;;3.30;99.90;;;;;;5033069;28;20193;-74
2024/01/12 01:57:30;;;;;;;22.30;14.05;;;3.30;99.90;;;;;;5007602;28;20197;-74
2024/01/12 01:59:57;;;;;;;17.65;13.57;;;3.30;99.90;;;;;;5022508;28;20687;-74
2024/01/12 02:02:23;;;;;;;22.00;14.05;;;3.30;99.90;;;;;;4979872;28;20182;-74
2024/01/12 02:04:54;;;;;;;23.33;15.13;;;3.30;99.90;;;;;;4996416;28;20185;-74
2024/01/12 02:07:20;;;;;;;16.90;14.25;;;3.30;99.90;;;;;;4979847;28;20731;-74
2024/01/12 02:09:46;;;;;;;18.53;14.20;;;3.30;99.90;;;;;;5013327;28;20309;-74
2024/01/12 02:12:12;;;;;;;25.30;17.02;;;3.30;99.90;;;;;;4996299;28;20297;-74
2024/01/12 02:14:41;;;;;;;20.17;15.83;;;3.30;99.90;;;;;;5014100;28;20538;-75
2024/01/12 02:17:07;;;;;;;21.48;16.80;;;3.30;99.90;;;;;;5037066;28;20569;-74
2024/01/12 02:19:33;;;;;;;25.17;14.75;;;3.20;99.90;;;;;;5031219;28;20224;-74
2024/01/12 02:21:58;;;;;;;22.07;15.70;;;3.20;99.90;;;;;;5029015;28;20177;-75
2024/01/12 02:24:24;;;;;;;18.57;13.23;;;3.20;99.90;;;;;;5017337;28;20174;-74
2024/01/12 02:26:50;;;;;;;18.53;13.90;;;3.20;99.90;;;;;;5020290;28;20594;-75
2024/01/12 02:29:16;;;;;;;22.70;16.07;;;3.20;99.90;;;;;;4997439;28;20200;-74
2024/01/12 02:31:43;;;;;;;20.83;14.88;;;3.20;99.90;;;;;;5014339;28;20189;-74
2024/01/12 02:34:09;;;;;;;20.73;15.07;;;3.20;99.90;;;;;;5015089;28;20201;-74
2024/01/12 02:36:35;;;;;;;17.95;14.27;;;3.20;99.90;;;;;;5030341;28;20188;-74
2024/01/12 02:39:01;;;;;;;23.50;15.07;;;3.20;99.90;;;;;;5005209;28;20198;-74
2024/01/12 02:41:26;;;;;;;21.83;15.90;;;3.20;99.90;;;;;;5038373;28;20193;-74
2024/01/12 02:43:52;;;;;;;23.27;15.30;;;3.20;99.90;;;;;;5018585;28;20235;-74
2024/01/12 02:46:18;;;;;;;22.00;16.13;;;3.30;99.90;;;;;;5023481;28;20678;-74
2024/01/12 02:48:43;;;;;;;24.57;17.20;;;3.30;99.90;;;;;;5031185;28;20247;-74
2024/01/12 02:51:09;;;;;;;21.97;16.17;;;3.30;99.90;;;;;;5029914;28;20182;-74
2024/01/12 02:53:35;;;;;;;21.03;14.20;;;3.30;99.90;;;;;;5018163;28;20209;-75
2024/01/12 02:56:01;;;;;;;25.33;15.80;;;3.30;99.90;;;;;;5008349;28;20182;-74
2024/01/12 02:58:27;;;;;;;20.60;15.23;;;3.30;99.90;;;;;;5009000;28;20621;-74
2024/01/12 03:00:52;;;;;;;18.27;13.77;;;3.40;99.90;;;;;;5019735;28;20666;-74
2024/01/12 03:03:21;;;;;;;24.33;16.93;;;3.40;99.90;;;;;;5002082;28;20589;-74
2024/01/12 03:05:48;;;;;;;23.48;16.35;;;3.40;99.90;;;;;;5017468;28;20181;-74
2024/01/12 03:08:14;;;;;;;21.73;16.20;;;3.40;99.90;;;;;;5031152;28;20205;-74
2024/01/12 03:10:40;;;;;;;21.30;16.17;;;3.40;99.90;;;;;;5031020;28;20185;-74
2024/01/12 03:13:06;;;;;;;23.70;16.40;;;3.40;99.90;;;;;;5028208;28;21021;-75
2024/01/12 03:15:32;;;;;;;21.95;16.40;;;3.50;99.90;;;;;;5022842;28;20601;-74
2024/01/12 03:17:58;;;;;;;20.67;15.60;;;3.50;99.90;;;;;;5029706;28;20189;-74
2024/01/12 03:20:24;;;;;;;25.15;17.27;;;3.40;99.90;;;;;;5027748;28;20592;-74
2024/01/12 03:22:50;;;;;;;24.53;17.93;;;3.40;99.90;;;;;;5043301;28;20865;-74
2024/01/12 03:25:15;;;;;;;25.87;16.97;;;3.50;99.90;;;;;;5011261;28;20597;-74
2024/01/12 03:27:41;;;;;;;26.63;17.73;;;3.50;99.90;;;;;;5025347;28;20593;-74
2024/01/12 03:30:07;;;;;;;27.37;19.30;;;3.50;99.90;;;;;;5022115;28;20540;-74
2024/01/12 03:32:33;;;;;;;27.30;18.15;;;3.50;99.90;;;;;;5011510;28;20284;-73
2024/01/12 03:34:59;;;;;;;31.77;22.47;;;3.50;99.90;;;;;;5011147;28;20250;-74
2024/01/12 03:37:25;;;;;;;26.02;18.52;;;3.50;99.90;;;;;;5019870;28;20954;-74
2024/01/12 03:39:51;;;;;;;26.10;18.03;;;3.50;99.90;;;;;;5012133;28;20198;-73
2024/01/12 03:42:17;;;;;;;28.70;19.60;;;3.40;99.90;;;;;;5014063;28;20244;-74
2024/01/12 03:44:42;;;;;;;32.17;22.60;;;3.50;99.90;;;;;;5032025;28;20177;-75
2024/01/12 03:47:08;;;;;;;38.30;23.00;;;3.40;99.90;;;;;;5014123;28;20193;-75
2024/01/12 03:49:34;;;;;;;33.17;21.80;;;3.40;99.90;;;;;;5040957;28;20623;-75
2024/01/12 03:52:00;;;;;;;33.97;23.10;;;3.40;99.90;;;;;;5013677;28;20231;-74
2024/01/12 03:54:26;;;;;;;39.80;25.48;;;3.40;99.90;;;;;;5020070;28;20174;-74
2024/01/12 03:56:52;;;;;;;38.07;22.80;;;3.30;99.90;;;;;;5014215;28;20188;-75
2024/01/12 03:59:18;;;;;;;33.50;21.60;;;3.30;99.90;;;;;;5029400;28;20632;-75
2024/01/12 04:01:45;;;;;;;33.47;22.60;;;3.30;99.90;;;;;;5031413;28;20563;-74
2024/01/12 04:04:11;;;;;;;37.38;21.35;;;3.20;99.90;;;;;;4995514;28;21001;-74
2024/01/12 04:06:37;;;;;;;36.08;24.20;;;3.30;99.90;;;;;;4999413;28;20256;-74
2024/01/12 04:09:03;;;;;;;35.40;24.25;;;3.30;99.90;;;;;;5007936;28;20225;-75
2024/01/12 04:11:29;;;;;;;31.63;21.70;;;3.20;99.90;;;;;;5029857;28;20213;-74
2024/01/12 04:13:55;;;;;;;30.70;19.20;;;3.20;99.90;;;;;;4987965;28;20280;-74
2024/01/12 04:16:20;;;;;;;36.37;24.17;;;3.20;99.90;;;;;;5033813;28;20174;-74
2024/01/12 04:18:46;;;;;;;27.27;19.23;;;3.30;99.90;;;;;;5031894;28;20217;-74
2024/01/12 04:21:12;;;;;;;36.27;22.90;;;3.30;99.90;;;;;;5004060;28;20204;-74
2024/01/12 04:23:39;;;;;;;37.28;23.98;;;3.30;99.90;;;;;;5005984;28;20256;-74
2024/01/12 04:26:06;;;;;;;34.10;23.85;;;3.30;99.90;;;;;;5020064;28;20190;-74
2024/01/12 04:28:32;;;;;;;38.78;24.13;;;3.30;99.90;;;;;;5021240;28;20200;-75
2024/01/12 04:30:58;;;;;;;35.15;22.98;;;3.30;99.90;;;;;;5023587;28;20181;-74
2024/01/12 04:33:25;;;;;;;33.45;22.42;;;3.30;99.90;;;;;;4991150;28;20745;-74
2024/01/12 04:35:51;;;;;;;36.65;22.65;;;3.30;99.90;;;;;;5007130;28;20181;-74
2024/01/12 04:38:17;;;;;;;39.88;24.65;;;3.30;99.90;;;;;;5015383;28;20201;-74
2024/01/12 04:40:43;;;;;;;36.78;23.60;;;3.30;99.90;;;;;;5032882;28;20184;-74
2024/01/12 04:43:08;;;;;;;41.97;24.40;;;3.30;99.90;;;;;;5033315;28;20643;-74
2024/01/12 04:45:34;;;;;;;36.43;23.87;;;3.30;99.90;;;;;;5018012;28;20189;-74
2024/01/12 04:48:00;;;;;;;40.43;24.57;;;3.40;99.90;;;;;;5034651;28;20620;-74
2024/01/12 04:50:27;;;;;;;36.90;24.48;;;3.40;99.90;;;;;;5015734;28;20206;-74
2024/01/12 04:52:54;;;;;;;42.97;23.30;;;3.40;99.90;;;;;;5015279;28;20247;-74
2024/01/12 04:55:20;;;;;;;36.35;22.95;;;3.40;99.90;;;;;;5015320;28;20196;-74
2024/01/12 04:57:46;;;;;;;44.10;26.08;;;3.40;99.90;;;;;;5012074;28;20218;-74
2024/01/12 05:00:12;;;;;;;44.10;28.07;;;3.40;99.90;;;;;;5031700;28;20200;-75
2024/01/12 05:02:38;;;;;;;35.70;25.85;;;3.40;99.90;;;;;;5017087;28;20586;-75
2024/01/12 05:05:05;;;;;;;42.60;26.57;;;3.40;99.90;;;;;;5035419;28;20191;-75
2024/01/12 05:07:31;;;;;;;46.88;28.15;;;3.40;99.90;;;;;;5008217;28;20597;-75
2024/01/12 05:09:57;;;;;;;40.83;24.67;;;3.40;99.90;;;;;;5020084;28;20252;-76
2024/01/12 05:12:22;;;;;;;40.07;26.80;;;3.40;99.90;;;;;;5026764;28;20304;-74
2024/01/12 05:14:48;;;;;;;45.60;27.80;;;3.50;99.90;;;;;;5037739;28;20784;-74
2024/01/12 05:17:14;;;;;;;41.80;27.77;;;3.50;99.90;;;;;;5028662;28;20169;-75
2024/01/12 05:19:40;;;;;;;46.27;27.17;;;3.50;99.90;;;;;;5020686;28;21223;-74
2024/01/12 05:22:07;;;;;;;42.53;27.07;;;3.50;99.90;;;;;;5013174;28;20945;-74
2024/01/12 05:24:33;;;;;;;43.92;26.85;;;3.50;99.90;;;;;;5037644;28;20249;-74
2024/01/12 05:26:59;;;;;;;45.85;28.48;;;3.60;99.90;;;;;;5015973;28;20217;-74
2024/01/12 05:29:25;;;;;;;50.50;27.90;;;3.50;99.90;;;;;;5015174;28;20206;-74
2024/01/12 05:31:51;;;;;;;39.00;25.90;;;3.60;99.90;;;;;;5015246;28;20576;-74
2024/01/12 05:34:17;;;;;;;44.10;26.88;;;3.60;99.90;;;;;;5030298;28;20209;-74
2024/01/12 05:36:42;;;;;;;57.50;32.87;;;3.60;99.90;;;;;;4998458;28;20734;-74
2024/01/12 05:39:08;;;;;;;55.00;29.77;;;3.60;99.90;;;;;;5038729;28;20640;-74
2024/01/12 05:41:34;;;;;;;50.97;29.17;;;3.60;99.90;;;;;;5017180;28;20193;-74
2024/01/12 05:44:00;;;;;;;50.20;29.37;;;3.70;99.90;;;;;;5036353;28;20181;-74
2024/01/12 05:46:26;;;;;;;52.97;29.77;;;3.60;99.90;;;;;;5033322;28;20215;-74
2024/01/12 05:48:52;;;;;;;48.70;27.47;;;3.60;99.90;;;;;;4999212;28;20230;-74
2024/01/12 05:51:18;;;;;;;53.20;29.58;;;3.60;99.90;;;;;;5042934;28;20225;-74
2024/01/12 05:53:44;;;;;;;49.47;29.83;;;3.60;99.90;;;;;;5025765;28;20264;-74
2024/01/12 05:56:10;;;;;;;52.20;30.67;;;3.60;99.90;;;;;;5027293;28;20208;-74
2024/01/12 05:58:35;;;;;;;50.87;28.00;;;3.60;99.90;;;;;;5023309;28;21673;-74
2024/01/12 06:01:01;;;;;;;50.90;28.93;;;3.60;99.90;;;;;;5025722;28;20725;-76
2024/01/12 06:03:28;;;;;;;47.67;28.23;;;3.60;99.90;;;;;;4998045;28;20244;-74
2024/01/12 06:05:57;;;;;;;46.67;27.50;;;3.70;99.90;;;;;;5031920;28;20531;-74
2024/01/12 06:08:23;;;;;;;50.85;30.05;;;3.60;99.90;;;;;;5023375;28;20205;-74
2024/01/12 06:10:49;;;;;;;45.20;27.77;;;3.60;99.90;;;;;;5033143;28;20228;-74
2024/01/12 06:13:15;;;;;;;45.28;28.08;;;3.70;99.90;;;;;;4997356;28;20572;-74
2024/01/12 06:15:41;;;;;;;54.83;30.30;;;3.70;99.90;;;;;;5000570;28;20175;-74
2024/01/12 06:18:07;;;;;;;52.47;29.63;;;3.70;99.90;;;;;;5032434;28;20197;-74
2024/01/12 06:20:32;;;;;;;57.90;33.00;;;3.70;99.90;;;;;;5014073;28;20188;-74
2024/01/12 06:22:58;;;;;;;51.00;29.07;;;3.70;99.90;;;;;;5026366;28;20177;-74
2024/01/12 06:25:24;;;;;;;51.23;29.63;;;3.70;99.90;;;;;;5004789;28;20185;-74
2024/01/12 06:27:50;;;;;;;56.37;30.20;;;3.60;99.90;;;;;;5025103;28;20620;-73
2024/01/12 06:30:16;;;;;;;54.70;30.70;;;3.60;99.90;;;;;;5021335;28;20584;-73
2024/01/12 06:32:43;;;;;;;47.88;26.27;;;3.60;99.90;;;;;;5000421;28;20260;-73
2024/01/12 06:35:11;;;;;;;53.25;26.65;;;3.60;99.90;;;;;;4977963;28;20188;-74
2024/01/12 06:37:37;;;;;;;52.72;27.42;;;3.60;99.90;;;;;;5027149;28;20253;-74
2024/01/12 06:40:04;;;;;;;48.97;26.17;;;3.60;99.90;;;;;;5005242;28;20169;-74
2024/01/12 06:42:31;;;;;;;47.78;27.08;;;3.60;99.90;;;;;;5002137;28;20268;-74
2024/01/12 06:44:57;;;;;;;49.28;28.23;;;3.60;99.90;;;;;;5026403;28;20243;-74
2024/01/12 06:47:23;;;;;;;56.22;30.00;;;3.60;99.90;;;;;;5031043;28;20858;-74
2024/01/12 06:49:49;;;;;;;42.35;24.70;;;3.60;99.90;;;;;;5006894;28;20205;-74
2024/01/12 06:52:14;;;;;;;50.17;28.40;;;3.70;99.90;;;;;;5017295;28;20169;-75
2024/01/12 06:54:44;;;;;;;48.43;28.40;;;3.70;99.90;;;;;;5015901;28;20211;-74
2024/01/12 06:57:10;;;;;;;47.85;26.92;;;3.70;99.90;;;;;;5013097;28;20170;-75
2024/01/12 06:59:36;;;;;;;43.63;25.38;;;3.70;99.90;;;;;;5030945;28;20280;-77
2024/01/12 07:02:01;;;;;;;54.07;27.90;;;3.70;99.90;;;;;;5022446;28;20572;-76
2024/01/12 07:04:27;;;;;;;52.90;26.87;;;3.80;99.90;;;;;;4980438;28;20181;-76
2024/01/12 07:06:53;;;;;;;53.37;27.23;;;3.80;99.90;;;;;;5040867;28;21243;-75
2024/01/12 07:09:19;;;;;;;52.73;27.87;;;3.80;99.90;;;;;;5004593;28;20297;-74
2024/01/12 07:11:45;;;;;;;43.83;25.23;;;3.80;99.90;;;;;;5025919;28;20171;-76
2024/01/12 07:14:14;;;;;;;47.28;26.63;;;3.90;99.90;;;;;;5019151;28;20198;-76
2024/01/12 07:16:40;;;;;;;42.80;25.20;;;3.90;99.90;;;;;;5031930;28;20555;-77
2024/01/12 07:19:07;;;;;;;46.08;25.60;;;3.90;99.90;;;;;;5024052;28;20548;-77
2024/01/12 07:21:33;;;;;;;50.15;26.73;;;3.90;99.90;;;;;;5019371;28;20178;-77
2024/01/12 07:23:59;;;;;;;41.42;23.85;;;3.90;99.90;;;;;;5012869;28;20178;-76
2024/01/12 07:26:25;;;;;;;37.47;23.25;;;3.90;99.90;;;;;;5020296;28;20602;-77
2024/01/12 07:28:51;;;;;;;42.90;25.50;;;4.00;99.90;;;;;;5001434;28;20252;-76
2024/01/12 07:31:17;;;;;;;40.40;25.55;;;4.00;99.90;;;;;;5019296;28;20200;-76
2024/01/12 07:33:43;;;;;;;46.55;25.95;;;4.00;99.90;;;;;;5027318;28;20217;-74
2024/01/12 07:36:09;;;;;;;49.27;26.90;;;4.00;99.90;;;;;;5012729;28;20169;-77
2024/01/12 07:38:34;;;;;;;47.87;28.07;;;4.00;99.90;;;;;;5012743;28;20949;-77
2024/01/12 07:41:00;;;;;;;47.07;27.40;;;4.10;99.90;;;;;;5030415;28;20182;-77
2024/01/12 07:43:30;;;;;;;45.28;27.90;;;4.10;99.90;;;;;;5020906;28;20205;-77
2024/01/12 07:45:56;;;;;;;43.75;24.85;;;4.10;99.90;;;;;;5000823;28;20637;-77
2024/01/12 07:48:22;;;;;;;49.58;27.88;;;4.10;99.90;;;;;;5010551;28;20694;-77
2024/01/12 07:50:48;;;;;;;49.72;28.02;;;4.10;99.90;;;;;;4984034;28;20796;-78
2024/01/12 07:53:14;;;;;;;42.50;24.45;;;4.10;99.90;;;;;;5030432;28;20289;-77
2024/01/12 07:55:40;;;;;;;46.60;26.17;;;4.10;99.90;;;;;;5027579;28;20287;-77
2024/01/12 07:58:06;;;;;;;46.60;25.63;;;4.10;99.90;;;;;;5021954;28;20201;-77
2024/01/12 08:00:32;;;;;;;39.50;23.87;;;4.10;99.90;;;;;;4989121;28;20577;-77
2024/01/12 08:02:57;;;;;;;42.43;23.80;;;4.10;99.90;;;;;;5018133;28;21143;-75
2024/01/12 08:05:23;;;;;;;49.90;27.33;;;4.10;99.90;;;;;;5021151;28;20663;-76
2024/01/12 08:07:49;;;;;;;53.27;29.33;;;4.10;99.90;;;;;;5005120;28;20706;-77
2024/01/12 08:10:16;;;;;;;50.60;26.30;;;4.10;99.90;;;;;;5022465;28;20976;-77
2024/01/12 08:12:42;;;;;;;49.17;26.85;;;4.20;99.90;;;;;;5020069;28;20197;-77
2024/01/12 08:15:09;;;;;;;57.90;27.07;;;4.20;99.90;;;;;;5008763;28;20230;-76
2024/01/12 08:17:36;;;;;;;44.55;24.20;;;4.20;99.90;;;;;;5021815;28;20574;-77
2024/01/12 08:20:02;;;;;;;49.13;24.45;;;4.20;99.90;;;;;;5011070;28;20174;-76
2024/01/12 08:22:28;;;;;;;41.50;22.43;;;4.20;99.90;;;;;;5002876;28;20173;-76
2024/01/12 08:24:54;;;;;;;49.47;27.15;;;4.20;99.90;;;;;;5027610;28;20664;-76
2024/01/12 08:27:20;;;;;;;43.93;24.93;;;4.20;99.90;;;;;;4963929;28;20249;-76
2024/01/12 08:29:46;;;;;;;39.57;22.43;;;4.20;99.90;;;;;;5011012;28;20826;-77
2024/01/12 08:32:11;;;;;;;43.77;22.03;;;4.20;99.90;;;;;;5009225;28;20646;-77
2024/01/12 08:34:39;;;;;;;43.00;23.57;;;4.20;99.90;;;;;;5027205;28;20177;-76
2024/01/12 08:37:06;;;;;;;42.17;23.95;;;4.30;99.90;;;;;;5007289;28;20174;-76
2024/01/12 08:39:32;;;;;;;38.42;22.23;;;4.30;99.90;;;;;;5012375;28;20288;-76
2024/01/12 08:41:58;;;;;;;37.60;20.02;;;4.30;99.90;;;;;;5026952;28;20659;-77
2024/01/12 08:44:24;;;;;;;35.00;19.10;;;4.30;99.90;;;;;;5021097;28;20218;-76
2024/01/12 08:46:52;;;;;;;30.30;18.30;;;4.30;99.90;;;;;;5002519;28;20261;-76
2024/01/12 08:49:18;;;;;;;29.63;18.30;;;4.30;99.90;;;;;;5027383;28;20201;-76
2024/01/12 08:51:44;;;;;;;33.20;19.10;;;4.30;99.90;;;;;;5009992;28;20220;-76
2024/01/12 08:54:10;;;;;;;37.13;19.50;;;4.30;99.90;;;;;;5024954;28;20193;-77
2024/01/12 08:56:35;;;;;;;37.23;19.50;;;4.30;99.90;;;;;;5007517;28;20617;-76
2024/01/12 08:59:01;;;;;;;29.10;17.33;;;4.20;99.90;;;;;;5030656;28;21131;-77
2024/01/12 09:01:27;;;;;;;28.10;16.77;;;4.20;99.90;;;;;;5008678;28;20644;-76
2024/01/12 09:03:52;;;;;;;33.90;19.83;;;4.20;99.90;;;;;;5006180;28;20640;-77
2024/01/12 09:06:18;;;;;;;36.70;20.47;;;4.20;99.90;;;;;;5027036;28;20189;-76
2024/01/12 09:08:44;;;;;;;42.20;23.33;;;4.20;99.90;;;;;;5017379;28;20258;-76
2024/01/12 09:11:11;;;;;;;40.07;23.40;;;4.20;99.90;;;;;;5036150;28;20644;-76
2024/01/12 09:13:37;;;;;;;30.45;18.33;;;4.10;99.90;;;;;;5003961;28;20210;-77
2024/01/12 09:16:03;;;;;;;26.02;15.48;;;4.10;99.90;;;;;;5009115;28;20178;-77
2024/01/12 09:18:29;;;;;;;32.60;18.35;;;4.10;99.90;;;;;;5031455;28;20231;-76
2024/01/12 09:20:55;;;;;;;28.00;16.37;;;4.10;99.90;;;;;;5033236;28;20189;-76
2024/01/12 09:23:20;;;;;;;23.53;14.53;;;4.10;99.90;;;;;;5022485;28;20197;-76
2024/01/12 09:25:47;;;;;;;27.70;15.90;;;4.10;99.90;;;;;;5015496;28;20236;-76
2024/01/12 09:28:13;;;;;;;28.23;15.65;;;4.10;99.90;;;;;;5014801;28;20619;-77
2024/01/12 09:30:39;;;;;;;26.20;15.10;;;4.20;99.90;;;;;;5020474;28;20178;-76
2024/01/12 09:33:05;;;;;;;25.33;16.15;;;4.10;99.90;;;;;;5041521;28;20217;-76
2024/01/12 09:35:31;;;;;;;25.70;16.30;;;4.20;99.90;;;;;;5043538;28;20524;-77
2024/01/12 09:37:56;;;;;;;27.70;14.60;;;4.20;99.90;;;;;;5016634;28;20679;-76
2024/01/12 09:40:22;;;;;;;27.70;16.63;;;4.20;99.90;;;;;;5006860;28;20715;-76
2024/01/12 09:42:49;;;;;;;28.25;14.73;;;4.20;99.90;;;;;;5035969;28;20177;-77
2024/01/12 09:45:17;;;;;;;27.90;16.02;;;4.20;99.90;;;;;;5029135;28;20183;-75
2024/01/12 09:47:43;;;;;;;27.23;15.95;;;4.20;99.90;;;;;;5024625;28;20170;-76
2024/01/12 09:50:10;;;;;;;30.13;17.50;;;4.30;99.90;;;;;;5032126;28;20184;-76
2024/01/12 09:52:37;;;;;;;23.58;13.48;;;4.30;99.90;;;;;;5024022;28;20237;-75
2024/01/12 09:55:04;;;;;;;23.98;14.35;;;4.30;99.90;;;;;;5000385;28;20657;-75
2024/01/12 09:57:30;;;;;;;21.88;14.23;;;4.30;99.90;;;;;;5010800;28;20197;-74
2024/01/12 09:59:56;;;;;;;19.57;13.20;;;4.30;99.90;;;;;;5024642;28;20678;-75
2024/01/12 10:02:22;;;;;;;24.27;13.80;;;4.30;99.90;;;;;;4983862;28;20667;-74
2024/01/12 10:04:48;;;;;;;21.90;13.93;;;4.30;99.90;;;;;;5015688;28;20627;-74
2024/01/12 10:07:13;;;;;;;21.03;12.23;;;4.30;99.90;;;;;;5006724;28;20233;-74
2024/01/12 10:09:40;;;;;;;27.03;13.70;;;4.30;99.90;;;;;;4997559;28;20213;-74
2024/01/12 10:12:06;;;;;;;23.77;13.68;;;4.30;99.90;;;;;;5032194;28;20182;-73
2024/01/12 10:14:32;;;;;;;23.80;12.95;;;4.30;99.90;;;;;;4972321;28;20197;-74
2024/01/12 10:16:59;;;;;;;23.30;12.47;;;4.30;99.90;;;;;;5013358;28;20655;-73
2024/01/12 10:19:25;;;;;;;24.85;14.50;;;4.40;99.90;;;;;;5013051;28;20660;-74
2024/01/12 10:21:51;;;;;;;21.77;13.45;;;4.40;99.90;;;;;;5015538;28;20228;-74
2024/01/12 10:24:21;;;;;;;21.80;12.68;;;4.40;99.90;;;;;;5031518;28;20268;-75
2024/01/12 10:26:49;;;;;;;15.98;10.50;;;4.40;99.90;;;;;;5014377;28;20188;-75
2024/01/12 10:29:16;;;;;;;20.17;12.05;;;4.50;99.90;;;;;;5004475;28;20201;-75
2024/01/12 10:31:43;;;;;;;22.02;13.13;;;4.50;99.90;;;;;;5005499;28;20170;-75
2024/01/12 10:34:15;;;;;;;20.13;13.25;;;4.50;99.90;;;;;;5041556;28;20564;-73
2024/01/12 10:36:41;;;;;;;25.17;14.45;;;4.50;99.90;;;;;;5005083;28;20173;-74
2024/01/12 10:39:09;;;;;;;24.67;14.65;;;4.50;99.90;;;;;;5014365;28;20717;-76
2024/01/12 10:41:35;;;;;;;21.70;12.50;;;4.50;99.90;;;;;;5029697;28;20192;-74
2024/01/12 10:44:05;;;;;;;22.10;13.40;;;4.50;99.90;;;;;;5030644;28;20182;-74
2024/01/12 10:46:44;;;;;;;24.77;15.35;;;4.50;99.90;;;;;;5011409;28;20272;-74
2024/01/12 10:49:20;;;;;;;34.85;18.33;;;4.50;99.90;;;;;;5019464;28;20606;-74
2024/01/12 10:52:06;;;;;;;39.38;27.30;;;4.50;99.90;;;;;;4995132;28;20729;-74
2024/01/12 10:54:49;;;;;;;32.80;22.92;;;4.40;99.90;;;;;;5012838;28;20564;-74
2024/01/12 10:57:15;;;;;;;30.30;18.70;;;4.50;99.90;;;;;;5009456;28;20174;-75
2024/01/12 10:59:44;;;;;;;29.65;16.77;;;4.50;99.90;;;;;;5023321;28;20229;-74
2024/01/12 11:02:12;;;;;;;26.05;16.30;;;4.60;99.90;;;;;;5030823;28;20173;-74
2024/01/12 11:04:39;;;;;;;27.83;17.35;;;4.60;99.90;;;;;;5021111;28;20600;-74
2024/01/12 11:07:06;;;;;;;26.60;16.63;;;4.60;99.90;;;;;;5012963;28;20181;-75
2024/01/12 11:09:32;;;;;;;25.38;16.63;;;4.70;99.90;;;;;;5036925;28;20208;-75
2024/01/12 11:12:20;;;;;;;29.67;18.67;;;4.70;99.90;;;;;;5007775;28;20174;-75
2024/01/12 11:14:46;;;;;;;29.17;17.63;;;4.70;99.90;;;;;;5023298;28;20181;-74
2024/01/12 11:17:12;;;;;;;32.33;19.43;;;4.70;99.90;;;;;;5030272;28;20196;-74
2024/01/12 11:19:38;;;;;;;34.72;18.67;;;4.70;99.90;;;;;;5030434;28;20204;-74
2024/01/12 11:22:08;;;;;;;29.17;16.57;;;4.70;99.90;;;;;;5015778;28;20555;-74
2024/01/12 11:24:36;;;;;;;32.97;18.83;;;4.70;99.90;;;;;;5013945;28;20655;-75
2024/01/12 11:27:02;;;;;;;34.72;20.42;;;4.70;99.90;;;;;;5031184;28;20182;-73
2024/01/12 11:29:34;;;;;;;36.85;20.70;;;4.70;99.90;;;;;;5025780;28;20607;-74
2024/01/12 11:32:04;;;;;;;31.98;19.10;;;4.70;99.90;;;;;;5003777;28;20927;-74
2024/01/12 11:34:33;;;;;;;38.65;18.65;;;4.70;99.90;;;;;;4994216;28;20292;-74
2024/01/12 11:37:00;;;;;;;34.13;20.33;;;4.70;99.90;;;;;;5031647;28;20583;-74
2024/01/12 11:39:32;;;;;;;33.97;18.70;;;4.70;99.90;;;;;;5012590;28;20194;-75
2024/01/12 11:42:02;;;;;;;32.10;18.23;;;4.70;99.90;;;;;;4996612;28;20190;-74
2024/01/12 11:44:27;;;;;;;38.30;19.42;;;4.70;99.90;;;;;;5004171;28;20182;-74
2024/01/12 11:46:53;;;;;;;30.93;19.03;;;4.70;99.90;;;;;;4992622;28;20170;-75
2024/01/12 11:49:19;;;;;;;32.50;18.27;;;4.70;99.90;;;;;;5025604;28;20209;-74
2024/01/12 11:51:45;;;;;;;28.98;17.50;;;4.70;99.90;;;;;;5014131;28;20189;-74
2024/01/12 11:54:11;;;;;;;36.07;18.40;;;4.70;99.90;;;;;;5040219;28;20244;-74
2024/01/12 11:56:37;;;;;;;32.00;18.90;;;4.80;99.90;;;;;;5010643;28;20638;-74
2024/01/12 11:59:02;;;;;;;27.67;16.17;;;4.80;99.90;;;;;;4995431;28;20637;-74
2024/01/12 12:01:28;;;;;;;28.63;17.47;;;4.80;99.90;;;;;;5009445;28;20204;-74
2024/01/12 12:03:54;;;;;;;29.13;16.30;;;4.80;99.90;;;;;;5029839;28;20597;-74
2024/01/12 12:06:20;;;;;;;32.60;18.60;;;4.80;99.90;;;;;;5022733;28;20186;-74
2024/01/12 12:08:48;;;;;;;29.70;17.52;;;4.80;99.90;;;;;;5008320;28;20633;-75
2024/01/12 12:11:14;;;;;;;31.58;18.67;;;4.80;99.90;;;;;;5007186;28;20251;-73
2024/01/12 12:13:43;;;;;;;29.33;17.90;;;4.80;99.90;;;;;;5029607;28;20209;-73
2024/01/12 12:16:09;;;;;;;28.98;17.75;;;4.70;99.90;;;;;;5012125;28;20585;-74
2024/01/12 12:18:34;;;;;;;27.27;14.93;;;4.80;99.90;;;;;;4995325;28;20201;-74
2024/01/12 12:21:00;;;;;;;30.97;17.77;;;4.80;99.90;;;;;;5015382;28;20182;-74
2024/01/12 12:23:27;;;;;;;31.20;19.93;;;4.80;99.90;;;;;;5008410;28;20593;-75
2024/01/12 12:25:54;;;;;;;25.60;17.50;;;4.70;99.90;;;;;;5012346;28;20591;-73
2024/01/12 12:28:23;;;;;;;31.17;16.98;;;4.70;99.90;;;;;;4995346;28;20240;-73
2024/01/12 12:30:52;;;;;;;23.80;15.77;;;4.70;99.90;;;;;;5017906;28;20548;-74